sensor_id;sensor_type;location;lat;lon;timestamp;pressure;altitude;pressure_sealevel;temperature;humidity
30081;BME280;16902;50.816;12.828;2023-11-19T00:00:33;97630.78;;;3.00;100.00
30081;BME280;16902;50.816;12.828;2023-11-19T00:05:35;97634.28;;;2.99;100.00
30081;BME280;16902;50.816;12.828;2023-11-19T00:10:36;97619.78;;;3.07;100.00
30081;BME280;16902;50.816;12.828;2023-11-19T00:15:38;97626.00;;;3.34;100.00
30081;BME280;16902;50.816;12.828;2023-11-19T00:20:40;97615.41;;;3.47;100.00
30081;BME280;16902;50.816;12.828;2023-11-19T00:25:41;97609.03;;;3.51;100.00
30081;BME280;16902;50.816;12.828;2023-11-19T00:30:43;97594.94;;;3.55;100.00
30081;BME280;16902;50.816;12.828;2023-11-19T00:35:45;97592.19;;;3.66;100.00
30081;BME280;16902;50.816;12.828;2023-11-19T00:40:47;97593.16;;;3.65;100.00
30081;BME280;16902;50.816;12.828;2023-11-19T00:45:48;97571.06;;;3.63;100.00
30081;BME280;16902;50.816;12.828;2023-11-19T00:50:52;97572.72;;;3.64;100.00
30081;BME280;16902;50.816;12.828;2023-11-19T00:55:54;97555.31;;;3.75;100.00
30081;BME280;16902;50.816;12.828;2023-11-19T01:00:55;97549.50;;;3.73;100.00
30081;BME280;16902;50.816;12.828;2023-11-19T01:05:58;97523.94;;;3.90;100.00
30081;BME280;16902;50.816;12.828;2023-11-19T01:11:02;97519.50;;;3.82;100.00
30081;BME280;16902;50.816;12.828;2023-11-19T01:16:05;97519.19;;;3.95;100.00
30081;BME280;16902;50.816;12.828;2023-11-19T01:21:08;97509.88;;;3.84;100.00
30081;BME280;16902;50.816;12.828;2023-11-19T01:26:11;97504.34;;;3.79;100.00
30081;BME280;16902;50.816;12.828;2023-11-19T01:31:17;97491.63;;;3.77;100.00
30081;BME280;16902;50.816;12.828;2023-11-19T01:36:19;97483.84;;;3.87;100.00
30081;BME280;16902;50.816;12.828;2023-11-19T01:41:20;97464.06;;;3.88;100.00
30081;BME280;16902;50.816;12.828;2023-11-19T01:46:22;97447.38;;;3.92;100.00
30081;BME280;16902;50.816;12.828;2023-11-19T01:51:24;97453.19;;;3.94;100.00
30081;BME280;16902;50.816;12.828;2023-11-19T01:56:26;97425.56;;;3.86;100.00
30081;BME280;16902;50.816;12.828;2023-11-19T02:01:29;97413.44;;;3.96;100.00
30081;BME280;16902;50.816;12.828;2023-11-19T02:06:33;97403.00;;;3.98;100.00
30081;BME280;16902;50.816;12.828;2023-11-19T02:11:36;97395.41;;;3.96;100.00
30081;BME280;16902;50.816;12.828;2023-11-19T02:16:38;97372.75;;;4.00;100.00
30081;BME280;16902;50.816;12.828;2023-11-19T02:21:40;97371.13;;;3.99;100.00
30081;BME280;16902;50.816;12.828;2023-11-19T02:26:50;97362.81;;;4.05;100.00
30081;BME280;16902;50.816;12.828;2023-11-19T02:31:53;97341.91;;;4.08;100.00
30081;BME280;16902;50.816;12.828;2023-11-19T02:36:56;97344.78;;;4.05;100.00
30081;BME280;16902;50.816;12.828;2023-11-19T02:41:59;97335.34;;;4.13;100.00
30081;BME280;16902;50.816;12.828;2023-11-19T02:47:01;97316.16;;;4.08;100.00
30081;BME280;16902;50.816;12.828;2023-11-19T02:52:06;97313.66;;;4.16;100.00
30081;BME280;16902;50.816;12.828;2023-11-19T02:57:08;97305.56;;;4.11;100.00
30081;BME280;16902;50.816;12.828;2023-11-19T03:02:23;97287.56;;;4.19;100.00
30081;BME280;16902;50.816;12.828;2023-11-19T03:07:26;97273.94;;;4.27;100.00
30081;BME280;16902;50.816;12.828;2023-11-19T03:12:28;97246.00;;;4.40;100.00
30081;BME280;16902;50.816;12.828;2023-11-19T03:17:30;97257.59;;;4.44;100.00
30081;BME280;16902;50.816;12.828;2023-11-19T03:22:32;97243.13;;;4.51;100.00
30081;BME280;16902;50.816;12.828;2023-11-19T03:27:39;97222.53;;;4.51;100.00
30081;BME280;16902;50.816;12.828;2023-11-19T03:32:40;97202.06;;;4.50;100.00
30081;BME280;16902;50.816;12.828;2023-11-19T03:37:42;97190.50;;;4.62;100.00
30081;BME280;16902;50.816;12.828;2023-11-19T03:42:47;97202.44;;;4.71;100.00
30081;BME280;16902;50.816;12.828;2023-11-19T03:47:48;97198.94;;;4.80;100.00
30081;BME280;16902;50.816;12.828;2023-11-19T03:52:51;97192.50;;;4.84;100.00
30081;BME280;16902;50.816;12.828;2023-11-19T03:57:54;97180.75;;;4.90;100.00
30081;BME280;16902;50.816;12.828;2023-11-19T04:02:55;97178.50;;;4.95;100.00
30081;BME280;16902;50.816;12.828;2023-11-19T04:07:57;97178.31;;;4.97;100.00
30081;BME280;16902;50.816;12.828;2023-11-19T04:12:59;97177.06;;;5.01;100.00
30081;BME280;16902;50.816;12.828;2023-11-19T04:18:01;97179.97;;;5.06;100.00
30081;BME280;16902;50.816;12.828;2023-11-19T04:23:02;97166.09;;;5.07;100.00
30081;BME280;16902;50.816;12.828;2023-11-19T04:28:04;97167.72;;;5.08;100.00
30081;BME280;16902;50.816;12.828;2023-11-19T04:33:06;97157.22;;;5.09;100.00
30081;BME280;16902;50.816;12.828;2023-11-19T04:38:07;97140.13;;;5.16;100.00
30081;BME280;16902;50.816;12.828;2023-11-19T04:43:09;97145.78;;;5.20;100.00
30081;BME280;16902;50.816;12.828;2023-11-19T04:48:11;97142.09;;;5.23;100.00
30081;BME280;16902;50.816;12.828;2023-11-19T04:53:14;97142.56;;;5.26;100.00
30081;BME280;16902;50.816;12.828;2023-11-19T04:58:17;97129.16;;;5.31;100.00
30081;BME280;16902;50.816;12.828;2023-11-19T05:03:18;97134.66;;;5.36;100.00
30081;BME280;16902;50.816;12.828;2023-11-19T05:08:20;97124.97;;;5.46;100.00
30081;BME280;16902;50.816;12.828;2023-11-19T05:13:22;97122.38;;;5.54;100.00
30081;BME280;16902;50.816;12.828;2023-11-19T05:18:24;97125.75;;;5.63;100.00
30081;BME280;16902;50.816;12.828;2023-11-19T05:23:25;97118.81;;;5.72;100.00
30081;BME280;16902;50.816;12.828;2023-11-19T05:28:27;97116.84;;;5.74;100.00
30081;BME280;16902;50.816;12.828;2023-11-19T05:33:29;97089.41;;;5.81;100.00
30081;BME280;16902;50.816;12.828;2023-11-19T05:38:30;97069.50;;;5.89;100.00
30081;BME280;16902;50.816;12.828;2023-11-19T05:43:32;97093.56;;;5.98;100.00
30081;BME280;16902;50.816;12.828;2023-11-19T05:48:34;97085.50;;;6.01;100.00
30081;BME280;16902;50.816;12.828;2023-11-19T05:53:36;97077.38;;;6.04;100.00
30081;BME280;16902;50.816;12.828;2023-11-19T05:58:38;97079.81;;;6.06;100.00
30081;BME280;16902;50.816;12.828;2023-11-19T06:03:41;97090.78;;;6.08;100.00
30081;BME280;16902;50.816;12.828;2023-11-19T06:08:45;97059.78;;;6.08;100.00
30081;BME280;16902;50.816;12.828;2023-11-19T06:13:47;97083.34;;;6.13;100.00
30081;BME280;16902;50.816;12.828;2023-11-19T06:18:49;97072.66;;;6.16;100.00
30081;BME280;16902;50.816;12.828;2023-11-19T06:23:51;97070.84;;;6.25;100.00
30081;BME280;16902;50.816;12.828;2023-11-19T06:28:54;97070.06;;;6.24;100.00
30081;BME280;16902;50.816;12.828;2023-11-19T06:33:56;97062.94;;;6.26;100.00
30081;BME280;16902;50.816;12.828;2023-11-19T06:38:58;97063.22;;;6.31;100.00
30081;BME280;16902;50.816;12.828;2023-11-19T06:44:00;97079.03;;;6.36;100.00
30081;BME280;16902;50.816;12.828;2023-11-19T06:49:01;97096.28;;;6.44;100.00
30081;BME280;16902;50.816;12.828;2023-11-19T06:54:03;97086.06;;;6.51;100.00
30081;BME280;16902;50.816;12.828;2023-11-19T06:59:05;97076.81;;;6.56;100.00
30081;BME280;16902;50.816;12.828;2023-11-19T07:04:07;97084.88;;;6.61;100.00
30081;BME280;16902;50.816;12.828;2023-11-19T07:09:12;97111.66;;;6.68;100.00
30081;BME280;16902;50.816;12.828;2023-11-19T07:14:15;97119.34;;;6.77;100.00
30081;BME280;16902;50.816;12.828;2023-11-19T07:19:17;97103.31;;;6.81;100.00
30081;BME280;16902;50.816;12.828;2023-11-19T07:24:19;97100.28;;;6.78;100.00
30081;BME280;16902;50.816;12.828;2023-11-19T07:29:21;97096.69;;;6.87;100.00
30081;BME280;16902;50.816;12.828;2023-11-19T07:34:28;97110.41;;;6.87;100.00
30081;BME280;16902;50.816;12.828;2023-11-19T07:39:30;97114.38;;;6.98;100.00
30081;BME280;16902;50.816;12.828;2023-11-19T07:44:32;97130.00;;;7.05;100.00
30081;BME280;16902;50.816;12.828;2023-11-19T07:49:34;97121.91;;;7.08;100.00
30081;BME280;16902;50.816;12.828;2023-11-19T07:54:36;97118.88;;;7.04;100.00
30081;BME280;16902;50.816;12.828;2023-11-19T07:59:38;97122.31;;;7.19;100.00
30081;BME280;16902;50.816;12.828;2023-11-19T08:04:41;97130.91;;;7.35;100.00
30081;BME280;16902;50.816;12.828;2023-11-19T08:09:46;97131.88;;;7.71;100.00
30081;BME280;16902;50.816;12.828;2023-11-19T08:14:49;97140.91;;;7.76;100.00
30081;BME280;16902;50.816;12.828;2023-11-19T08:19:51;97133.34;;;7.89;100.00
30081;BME280;16902;50.816;12.828;2023-11-19T08:24:54;97141.75;;;8.06;100.00
30081;BME280;16902;50.816;12.828;2023-11-19T08:29:56;97135.28;;;8.16;100.00
30081;BME280;16902;50.816;12.828;2023-11-19T08:35:00;97125.28;;;8.28;100.00
30081;BME280;16902;50.816;12.828;2023-11-19T08:40:02;97133.88;;;8.43;100.00
30081;BME280;16902;50.816;12.828;2023-11-19T08:45:07;97146.22;;;8.56;100.00
30081;BME280;16902;50.816;12.828;2023-11-19T08:50:12;97140.84;;;8.58;100.00
30081;BME280;16902;50.816;12.828;2023-11-19T08:55:14;97139.31;;;8.63;100.00
30081;BME280;16902;50.816;12.828;2023-11-19T09:00:16;97139.00;;;8.73;100.00
30081;BME280;16902;50.816;12.828;2023-11-19T09:05:18;97135.31;;;8.82;100.00
30081;BME280;16902;50.816;12.828;2023-11-19T09:10:20;97138.97;;;8.88;100.00
30081;BME280;16902;50.816;12.828;2023-11-19T09:15:21;97140.03;;;8.93;100.00
30081;BME280;16902;50.816;12.828;2023-11-19T09:20:23;97159.44;;;8.97;100.00
30081;BME280;16902;50.816;12.828;2023-11-19T09:25:25;97164.97;;;9.09;100.00
30081;BME280;16902;50.816;12.828;2023-11-19T09:30:27;97160.09;;;9.70;100.00
30081;BME280;16902;50.816;12.828;2023-11-19T09:35:29;97163.41;;;9.58;100.00
30081;BME280;16902;50.816;12.828;2023-11-19T09:40:31;97153.69;;;9.45;100.00
30081;BME280;16902;50.816;12.828;2023-11-19T09:45:48;97155.59;;;9.36;100.00
30081;BME280;16902;50.816;12.828;2023-11-19T09:50:51;97159.25;;;9.42;100.00
30081;BME280;16902;50.816;12.828;2023-11-19T09:55:55;97157.53;;;9.27;100.00
30081;BME280;16902;50.816;12.828;2023-11-19T10:00:58;97171.25;;;9.00;100.00
30081;BME280;16902;50.816;12.828;2023-11-19T10:06:07;97161.97;;;8.91;100.00
30081;BME280;16902;50.816;12.828;2023-11-19T10:11:10;97156.09;;;8.82;100.00
30081;BME280;16902;50.816;12.828;2023-11-19T10:16:15;97153.28;;;8.84;100.00
30081;BME280;16902;50.816;12.828;2023-11-19T10:21:19;97156.16;;;8.89;100.00
30081;BME280;16902;50.816;12.828;2023-11-19T10:26:21;97148.44;;;9.17;100.00
30081;BME280;16902;50.816;12.828;2023-11-19T10:31:24;97147.38;;;9.33;100.00
30081;BME280;16902;50.816;12.828;2023-11-19T10:36:39;97137.75;;;9.48;100.00
30081;BME280;16902;50.816;12.828;2023-11-19T10:41:45;97139.50;;;9.69;100.00
30081;BME280;16902;50.816;12.828;2023-11-19T10:46:48;97141.06;;;9.98;100.00
30081;BME280;16902;50.816;12.828;2023-11-19T10:51:50;97145.41;;;10.19;100.00
30081;BME280;16902;50.816;12.828;2023-11-19T10:56:58;97139.28;;;10.33;100.00
30081;BME280;16902;50.816;12.828;2023-11-19T11:02:03;97138.41;;;10.61;100.00
30081;BME280;16902;50.816;12.828;2023-11-19T11:07:09;97143.88;;;10.79;100.00
30081;BME280;16902;50.816;12.828;2023-11-19T11:12:11;97143.88;;;10.79;100.00
30081;BME280;16902;50.816;12.828;2023-11-19T11:17:17;97144.69;;;10.86;100.00
30081;BME280;16902;50.816;12.828;2023-11-19T11:22:20;97126.63;;;10.78;100.00
30081;BME280;16902;50.816;12.828;2023-11-19T11:27:52;97127.31;;;10.93;100.00
30081;BME280;16902;50.816;12.828;2023-11-19T11:33:18;97123.28;;;10.91;100.00
30081;BME280;16902;50.816;12.828;2023-11-19T11:38:24;97119.41;;;10.67;100.00
30081;BME280;16902;50.816;12.828;2023-11-19T11:43:44;97117.16;;;10.57;100.00
30081;BME280;16902;50.816;12.828;2023-11-19T11:48:48;97119.34;;;10.47;100.00
30081;BME280;16902;50.816;12.828;2023-11-19T11:53:51;97118.38;;;10.54;100.00
30081;BME280;16902;50.816;12.828;2023-11-19T11:58:54;97109.50;;;10.42;100.00
30081;BME280;16902;50.816;12.828;2023-11-19T12:03:56;97147.16;;;9.77;100.00
30081;BME280;16902;50.816;12.828;2023-11-19T12:08:59;97120.38;;;9.27;100.00
30081;BME280;16902;50.816;12.828;2023-11-19T12:14:02;97125.75;;;9.04;100.00
30081;BME280;16902;50.816;12.828;2023-11-19T12:19:04;97120.91;;;8.80;100.00
30081;BME280;16902;50.816;12.828;2023-11-19T12:24:08;97116.03;;;8.91;100.00
30081;BME280;16902;50.816;12.828;2023-11-19T12:29:10;97113.19;;;9.08;100.00
30081;BME280;16902;50.816;12.828;2023-11-19T12:34:12;97108.19;;;9.06;100.00
30081;BME280;16902;50.816;12.828;2023-11-19T12:39:15;97104.47;;;9.37;100.00
30081;BME280;16902;50.816;12.828;2023-11-19T12:44:17;97103.00;;;9.56;100.00
30081;BME280;16902;50.816;12.828;2023-11-19T12:49:19;97105.44;;;9.92;100.00
30081;BME280;16902;50.816;12.828;2023-11-19T12:54:32;97109.28;;;10.31;100.00
30081;BME280;16902;50.816;12.828;2023-11-19T12:59:34;97103.50;;;10.42;100.00
30081;BME280;16902;50.816;12.828;2023-11-19T13:04:36;97102.75;;;10.13;100.00
30081;BME280;16902;50.816;12.828;2023-11-19T13:09:38;97098.97;;;10.16;100.00
30081;BME280;16902;50.816;12.828;2023-11-19T13:14:40;97105.72;;;10.10;100.00
30081;BME280;16902;50.816;12.828;2023-11-19T13:19:47;97091.31;;;10.01;100.00
30081;BME280;16902;50.816;12.828;2023-11-19T13:24:49;97098.94;;;9.74;100.00
30081;BME280;16902;50.816;12.828;2023-11-19T13:29:51;97101.19;;;9.84;100.00
30081;BME280;16902;50.816;12.828;2023-11-19T13:34:53;97096.09;;;10.04;100.00
30081;BME280;16902;50.816;12.828;2023-11-19T13:39:55;97094.81;;;9.87;100.00
30081;BME280;16902;50.816;12.828;2023-11-19T13:44:57;97099.72;;;9.75;100.00
30081;BME280;16902;50.816;12.828;2023-11-19T13:49:59;97103.22;;;9.61;100.00
30081;BME280;16902;50.816;12.828;2023-11-19T13:55:01;97107.28;;;9.42;100.00
30081;BME280;16902;50.816;12.828;2023-11-19T14:00:04;97103.66;;;9.36;100.00
30081;BME280;16902;50.816;12.828;2023-11-19T14:05:33;97107.34;;;9.48;100.00
30081;BME280;16902;50.816;12.828;2023-11-19T14:10:39;97104.03;;;9.61;100.00
30081;BME280;16902;50.816;12.828;2023-11-19T14:15:44;97107.88;;;9.65;100.00
30081;BME280;16902;50.816;12.828;2023-11-19T14:20:50;97115.75;;;9.50;100.00
30081;BME280;16902;50.816;12.828;2023-11-19T14:25:52;97113.81;;;9.31;100.00
30081;BME280;16902;50.816;12.828;2023-11-19T14:30:54;97120.38;;;9.27;100.00
30081;BME280;16902;50.816;12.828;2023-11-19T14:35:59;97104.53;;;9.22;100.00
30081;BME280;16902;50.816;12.828;2023-11-19T14:41:00;97102.63;;;9.31;100.00
30081;BME280;16902;50.816;12.828;2023-11-19T14:46:02;97097.78;;;9.27;100.00
30081;BME280;16902;50.816;12.828;2023-11-19T14:51:05;97091.69;;;9.14;100.00
30081;BME280;16902;50.816;12.828;2023-11-19T14:56:10;97082.91;;;9.15;100.00
30081;BME280;16902;50.816;12.828;2023-11-19T15:01:13;97089.09;;;9.14;100.00
30081;BME280;16902;50.816;12.828;2023-11-19T15:06:15;97094.84;;;9.09;100.00
30081;BME280;16902;50.816;12.828;2023-11-19T15:11:17;97091.03;;;9.05;100.00
30081;BME280;16902;50.816;12.828;2023-11-19T15:16:21;97099.03;;;8.89;100.00
30081;BME280;16902;50.816;12.828;2023-11-19T15:21:32;97098.28;;;8.73;100.00
30081;BME280;16902;50.816;12.828;2023-11-19T15:26:35;97100.94;;;8.59;100.00
30081;BME280;16902;50.816;12.828;2023-11-19T15:31:39;97114.00;;;8.36;100.00
30081;BME280;16902;50.816;12.828;2023-11-19T15:36:41;97102.75;;;8.43;100.00
30081;BME280;16902;50.816;12.828;2023-11-19T15:41:42;97094.78;;;8.30;100.00
30081;BME280;16902;50.816;12.828;2023-11-19T15:46:45;97099.81;;;8.32;100.00
30081;BME280;16902;50.816;12.828;2023-11-19T15:51:46;97098.63;;;8.34;100.00
30081;BME280;16902;50.816;12.828;2023-11-19T15:56:48;97099.72;;;8.40;100.00
30081;BME280;16902;50.816;12.828;2023-11-19T16:01:50;97104.47;;;8.36;100.00
30081;BME280;16902;50.816;12.828;2023-11-19T16:06:52;97106.88;;;8.23;100.00
30081;BME280;16902;50.816;12.828;2023-11-19T16:11:54;97119.59;;;8.03;100.00
30081;BME280;16902;50.816;12.828;2023-11-19T16:16:57;97119.47;;;7.67;100.00
30081;BME280;16902;50.816;12.828;2023-11-19T16:21:59;97115.50;;;7.41;100.00
30081;BME280;16902;50.816;12.828;2023-11-19T16:27:11;97108.78;;;7.32;100.00
30081;BME280;16902;50.816;12.828;2023-11-19T16:32:16;97122.94;;;7.59;100.00
30081;BME280;16902;50.816;12.828;2023-11-19T16:37:18;97116.34;;;7.71;100.00
30081;BME280;16902;50.816;12.828;2023-11-19T16:42:22;97118.47;;;7.68;100.00
30081;BME280;16902;50.816;12.828;2023-11-19T16:47:24;97130.91;;;7.35;100.00
30081;BME280;16902;50.816;12.828;2023-11-19T16:52:25;97129.88;;;7.06;100.00
30081;BME280;16902;50.816;12.828;2023-11-19T16:57:27;97132.13;;;7.24;100.00
30081;BME280;16902;50.816;12.828;2023-11-19T17:02:29;97149.41;;;7.69;100.00
30081;BME280;16902;50.816;12.828;2023-11-19T17:07:31;97154.44;;;8.30;100.00
30081;BME280;16902;50.816;12.828;2023-11-19T17:12:33;97136.91;;;8.62;100.00
30081;BME280;16902;50.816;12.828;2023-11-19T17:17:36;97148.34;;;8.89;100.00
30081;BME280;16902;50.816;12.828;2023-11-19T17:22:39;97150.59;;;8.92;100.00
30081;BME280;16902;50.816;12.828;2023-11-19T17:27:41;97155.97;;;8.90;100.00
30081;BME280;16902;50.816;12.828;2023-11-19T17:32:44;97150.28;;;8.80;100.00
30081;BME280;16902;50.816;12.828;2023-11-19T17:37:47;97148.41;;;8.74;100.00
30081;BME280;16902;50.816;12.828;2023-11-19T17:42:49;97151.94;;;8.66;100.00
30081;BME280;16902;50.816;12.828;2023-11-19T17:47:56;97148.91;;;8.48;100.00
30081;BME280;16902;50.816;12.828;2023-11-19T17:52:58;97149.63;;;8.57;100.00
30081;BME280;16902;50.816;12.828;2023-11-19T17:58:00;97142.78;;;8.56;100.00
30081;BME280;16902;50.816;12.828;2023-11-19T18:03:01;97129.19;;;8.68;100.00
30081;BME280;16902;50.816;12.828;2023-11-19T18:08:03;97131.59;;;8.70;100.00
30081;BME280;16902;50.816;12.828;2023-11-19T18:13:06;97131.78;;;8.68;100.00
30081;BME280;16902;50.816;12.828;2023-11-19T18:18:08;97132.41;;;8.70;100.00
30081;BME280;16902;50.816;12.828;2023-11-19T18:23:10;97130.38;;;8.66;100.00
30081;BME280;16902;50.816;12.828;2023-11-19T18:28:12;97127.31;;;8.62;100.00
30081;BME280;16902;50.816;12.828;2023-11-19T18:33:14;97129.03;;;8.55;100.00
30081;BME280;16902;50.816;12.828;2023-11-19T18:38:16;97135.50;;;8.44;100.00
30081;BME280;16902;50.816;12.828;2023-11-19T18:43:17;97140.41;;;8.39;100.00
30081;BME280;16902;50.816;12.828;2023-11-19T18:48:19;97142.22;;;8.39;100.00
30081;BME280;16902;50.816;12.828;2023-11-19T18:53:21;97145.31;;;8.49;100.00
30081;BME280;16902;50.816;12.828;2023-11-19T18:58:23;97144.16;;;8.52;100.00
30081;BME280;16902;50.816;12.828;2023-11-19T19:03:25;97148.09;;;8.33;100.00
30081;BME280;16902;50.816;12.828;2023-11-19T19:08:28;97152.38;;;8.25;100.00
30081;BME280;16902;50.816;12.828;2023-11-19T19:13:30;97151.75;;;8.23;100.00
30081;BME280;16902;50.816;12.828;2023-11-19T19:18:31;97147.56;;;8.22;100.00
30081;BME280;16902;50.816;12.828;2023-11-19T19:23:33;97156.03;;;8.16;100.00
30081;BME280;16902;50.816;12.828;2023-11-19T19:28:35;97154.81;;;8.12;100.00
30081;BME280;16902;50.816;12.828;2023-11-19T19:33:39;97158.38;;;8.41;100.00
30081;BME280;16902;50.816;12.828;2023-11-19T19:38:41;97162.06;;;8.46;100.00
30081;BME280;16902;50.816;12.828;2023-11-19T19:43:43;97169.38;;;8.58;100.00
30081;BME280;16902;50.816;12.828;2023-11-19T19:48:45;97170.53;;;8.55;100.00
30081;BME280;16902;50.816;12.828;2023-11-19T19:53:47;97167.66;;;8.65;100.00
30081;BME280;16902;50.816;12.828;2023-11-19T19:58:49;97176.25;;;8.65;100.00
30081;BME280;16902;50.816;12.828;2023-11-19T20:03:51;97167.78;;;8.57;100.00
30081;BME280;16902;50.816;12.828;2023-11-19T20:08:53;97167.00;;;8.41;100.00
30081;BME280;16902;50.816;12.828;2023-11-19T20:13:55;97152.81;;;8.29;100.00
30081;BME280;16902;50.816;12.828;2023-11-19T20:18:57;97157.09;;;8.07;100.00
30081;BME280;16902;50.816;12.828;2023-11-19T20:23:59;97152.84;;;8.14;100.00
30081;BME280;16902;50.816;12.828;2023-11-19T20:29:01;97151.50;;;8.18;100.00
30081;BME280;16902;50.816;12.828;2023-11-19T20:34:07;97155.63;;;8.13;100.00
30081;BME280;16902;50.816;12.828;2023-11-19T20:39:09;97144.53;;;8.19;100.00
30081;BME280;16902;50.816;12.828;2023-11-19T20:44:14;97146.38;;;8.25;100.00
30081;BME280;16902;50.816;12.828;2023-11-19T20:49:16;97150.97;;;8.38;100.00
30081;BME280;16902;50.816;12.828;2023-11-19T20:54:18;97147.13;;;8.48;100.00
30081;BME280;16902;50.816;12.828;2023-11-19T20:59:40;97153.56;;;8.53;100.00
30081;BME280;16902;50.816;12.828;2023-11-19T21:04:42;97149.94;;;8.68;100.00
30081;BME280;16902;50.816;12.828;2023-11-19T21:09:44;97150.63;;;8.77;100.00
30081;BME280;16902;50.816;12.828;2023-11-19T21:14:46;97151.75;;;8.89;100.00
30081;BME280;16902;50.816;12.828;2023-11-19T21:19:48;97149.59;;;8.93;100.00
30081;BME280;16902;50.816;12.828;2023-11-19T21:24:50;97148.06;;;8.98;100.00
30081;BME280;16902;50.816;12.828;2023-11-19T21:29:53;97144.97;;;8.88;100.00
30081;BME280;16902;50.816;12.828;2023-11-19T21:34:56;97136.72;;;8.63;100.00
30081;BME280;16902;50.816;12.828;2023-11-19T21:39:58;97132.59;;;8.54;100.00
30081;BME280;16902;50.816;12.828;2023-11-19T21:45:02;97126.63;;;8.54;100.00
30081;BME280;16902;50.816;12.828;2023-11-19T21:50:05;97119.34;;;8.64;100.00
30081;BME280;16902;50.816;12.828;2023-11-19T21:55:09;97118.00;;;8.68;100.00
30081;BME280;16902;50.816;12.828;2023-11-19T22:00:12;97109.47;;;8.74;100.00
30081;BME280;16902;50.816;12.828;2023-11-19T22:05:17;97112.16;;;8.81;100.00
30081;BME280;16902;50.816;12.828;2023-11-19T22:10:23;97112.41;;;8.86;100.00
30081;BME280;16902;50.816;12.828;2023-11-19T22:15:25;97113.06;;;8.94;100.00
30081;BME280;16902;50.816;12.828;2023-11-19T22:20:27;97113.16;;;9.01;100.00
30081;BME280;16902;50.816;12.828;2023-11-19T22:25:37;97119.75;;;9.04;100.00
30081;BME280;16902;50.816;12.828;2023-11-19T22:30:39;97131.56;;;9.06;100.00
30081;BME280;16902;50.816;12.828;2023-11-19T22:35:41;97118.78;;;9.05;100.00
30081;BME280;16902;50.816;12.828;2023-11-19T22:40:43;97124.94;;;9.04;100.00
30081;BME280;16902;50.816;12.828;2023-11-19T22:45:44;97131.81;;;8.90;100.00
30081;BME280;16902;50.816;12.828;2023-11-19T22:50:46;97128.69;;;8.80;100.00
30081;BME280;16902;50.816;12.828;2023-11-19T22:55:49;97136.13;;;8.83;100.00
30081;BME280;16902;50.816;12.828;2023-11-19T23:00:51;97137.56;;;8.85;100.00
30081;BME280;16902;50.816;12.828;2023-11-19T23:05:53;97135.75;;;8.86;100.00
30081;BME280;16902;50.816;12.828;2023-11-19T23:10:55;97137.44;;;8.57;100.00
30081;BME280;16902;50.816;12.828;2023-11-19T23:15:57;97133.69;;;8.15;100.00
30081;BME280;16902;50.816;12.828;2023-11-19T23:21:04;97137.09;;;7.86;100.00
30081;BME280;16902;50.816;12.828;2023-11-19T23:26:12;97128.84;;;7.68;100.00
30081;BME280;16902;50.816;12.828;2023-11-19T23:31:18;97117.78;;;7.59;100.00
30081;BME280;16902;50.816;12.828;2023-11-19T23:36:20;97120.88;;;7.55;100.00
30081;BME280;16902;50.816;12.828;2023-11-19T23:41:23;97129.00;;;7.52;100.00
30081;BME280;16902;50.816;12.828;2023-11-19T23:46:27;97115.13;;;7.44;100.00
30081;BME280;16902;50.816;12.828;2023-11-19T23:51:31;97110.31;;;7.41;100.00
30081;BME280;16902;50.816;12.828;2023-11-19T23:56:33;97113.38;;;7.45;100.00
